Main page
METAR-TAF:

METAR-TAF

Airports :

Dasht-e Naz Airport

Sari, Iran

latitude: 36-38-09N, longitude: 53-11-37E, elevation: 11 m

Current weather observation

The report was made 23 minutes ago, at 04:00 UTC
Calm wind
Temperature 27°C
Humidity 62%
Pressure 1009 hPa
Visibility 10 km or more
no clouds below 1500 m and no cumulonimbus

METAR: OINZ 240400Z 00000KT CAVOK 27/19 Q1009

Time: 08:53 (04:23 UTC)

Forecast

The report was made 1 hour and 53 minutes ago, at 02:30 UTC
Forecast valid from 24 at 03 UTC to 24 at 12 UTC
Wind 7 kt from the South
Visibility: 7000 m
Few clouds at a height of 3000 ft
Broken clouds at a height of 11000 ft
Temporary
from 24 at 07 UTC to 24 at 12 UTC
Wind 14 kt from the North
Few clouds at a height of 2800 ft, Cumulonimbus.
Scattered clouds at a height of 3000 ft
Broken clouds at a height of 9000 ft

TAF: OINZ 240230Z 2403/2412 18007KT 7000 FEW030 BKN110 TEMPO 2407/2412 36014KT FEW028CB SCT030 BKN090

Weather observations and forecasts of more than 4000 airports (METAR and TAF reports).

The available stations are represented by yellow and red dots on the map.

Hover mouse over dot to see the name of the station.

Then click to see weather observations and forecasts.

To change the map : click on the green buttons with a black cross to zoom in, on the green button with a dash to zoom out, or on the green arrows for adjacent maps.


METAR-TAF: